Řízení letového provozu České republiky
Letiste: LKPD Aktualizace: 27.02.2017 11:06:08  UTC
 METAR LKPD 27.02. 11:00 ...
METAR LKPD 271100Z 09007KT CAVOK 12/M01 Q1010 NOSIG =
 TAF LKPD 27.02. 05:00 ...
TAF LKPD 270500Z 2706/2806 VRB02KT CAVOK      BECMG 2712/2714 15006KT      PROB40 TEMPO 2712/2716 14012KT=